sensor_id;sensor_type;location;lat;lon;timestamp;pressure;altitude;pressure_sealevel;temperature;humidity
19761;BME280;10039;42.632;23.408;2023-04-26T00:02:18;94063.59;;;11.58;78.47
19761;BME280;10039;42.632;23.408;2023-04-26T00:05:11;94048.25;;;11.49;77.94
19761;BME280;10039;42.632;23.408;2023-04-26T00:08:08;94072.72;;;11.69;77.76
19761;BME280;10039;42.632;23.408;2023-04-26T00:11:07;94028.56;;;11.34;77.55
19761;BME280;10039;42.632;23.408;2023-04-26T00:14:08;94052.41;;;11.50;77.45
19761;BME280;10039;42.632;23.408;2023-04-26T00:17:16;94050.91;;;11.49;77.25
19761;BME280;10039;42.632;23.408;2023-04-26T00:19:44;94021.00;;;11.33;77.88
19761;BME280;10039;42.632;23.408;2023-04-26T00:22:42;94003.44;;;11.23;77.70
19761;BME280;10039;42.632;23.408;2023-04-26T00:25:11;93996.44;;;11.16;77.61
19761;BME280;10039;42.632;23.408;2023-04-26T00:27:57;94009.25;;;10.79;78.36
19761;BME280;10039;42.632;23.408;2023-04-26T00:30:29;94045.63;;;11.07;78.37
19761;BME280;10039;42.632;23.408;2023-04-26T00:33:04;94017.41;;;10.97;78.02
19761;BME280;10039;42.632;23.408;2023-04-26T00:38:31;94050.09;;;11.10;77.81
19761;BME280;10039;42.632;23.408;2023-04-26T00:41:06;93986.75;;;10.80;77.57
19761;BME280;10039;42.632;23.408;2023-04-26T00:43:35;94048.75;;;11.05;77.39
19761;BME280;10039;42.632;23.408;2023-04-26T00:46:05;93977.88;;;10.61;77.78
19761;BME280;10039;42.632;23.408;2023-04-26T00:48:51;94036.88;;;10.85;78.25
19761;BME280;10039;42.632;23.408;2023-04-26T00:51:18;94002.94;;;10.42;77.94
19761;BME280;10039;42.632;23.408;2023-04-26T00:53:53;94008.63;;;10.32;78.63
19761;BME280;10039;42.632;23.408;2023-04-26T00:56:33;94049.81;;;10.65;78.20
19761;BME280;10039;42.632;23.408;2023-04-26T00:59:23;94020.28;;;10.47;79.00
19761;BME280;10039;42.632;23.408;2023-04-26T01:05:25;93998.91;;;9.79;80.76
19761;BME280;10039;42.632;23.408;2023-04-26T01:15:01;94001.06;;;9.59;81.93
19761;BME280;10039;42.632;23.408;2023-04-26T01:18:09;94050.78;;;9.87;82.01
19761;BME280;10039;42.632;23.408;2023-04-26T01:20:44;94001.72;;;9.38;82.37
19761;BME280;10039;42.632;23.408;2023-04-26T01:23:36;94005.31;;;9.44;82.32
19761;BME280;10039;42.632;23.408;2023-04-26T01:26:12;93988.41;;;9.38;82.37
19761;BME280;10039;42.632;23.408;2023-04-26T01:29:18;93997.13;;;9.51;82.33
19761;BME280;10039;42.632;23.408;2023-04-26T01:31:50;94005.06;;;9.76;81.64
19761;BME280;10039;42.632;23.408;2023-04-26T01:34:38;94033.09;;;9.93;82.09
19761;BME280;10039;42.632;23.408;2023-04-26T01:37:08;94016.03;;;9.91;81.51
19761;BME280;10039;42.632;23.408;2023-04-26T01:45:32;94018.41;;;9.51;81.07
19761;BME280;10039;42.632;23.408;2023-04-26T01:51:25;94051.22;;;9.36;82.80
19761;BME280;10039;42.632;23.408;2023-04-26T01:58:08;94010.94;;;9.09;83.75
19761;BME280;10039;42.632;23.408;2023-04-26T02:00:37;94039.19;;;9.31;84.13
19761;BME280;10039;42.632;23.408;2023-04-26T02:03:33;94015.00;;;9.26;83.42
19761;BME280;10039;42.632;23.408;2023-04-26T02:06:32;94010.09;;;9.24;82.64
19761;BME280;10039;42.632;23.408;2023-04-26T02:12:24;94023.88;;;9.35;81.89
19761;BME280;10039;42.632;23.408;2023-04-26T02:14:56;93997.13;;;9.14;81.79
19761;BME280;10039;42.632;23.408;2023-04-26T02:17:28;94034.41;;;9.39;81.60
19761;BME280;10039;42.632;23.408;2023-04-26T02:20:03;93988.47;;;8.97;81.78
19761;BME280;10039;42.632;23.408;2023-04-26T02:22:44;93981.00;;;8.92;82.10
19761;BME280;10039;42.632;23.408;2023-04-26T02:25:09;93992.97;;;9.00;81.48
19761;BME280;10039;42.632;23.408;2023-04-26T02:27:46;94036.94;;;9.17;82.13
19761;BME280;10039;42.632;23.408;2023-04-26T02:30:14;93983.00;;;8.76;81.89
19761;BME280;10039;42.632;23.408;2023-04-26T02:32:53;94013.47;;;9.00;81.51
19761;BME280;10039;42.632;23.408;2023-04-26T02:35:37;94032.38;;;9.30;82.33
19761;BME280;10039;42.632;23.408;2023-04-26T02:38:19;94013.63;;;9.21;82.03
19761;BME280;10039;42.632;23.408;2023-04-26T02:40:45;94025.34;;;9.36;81.41
19761;BME280;10039;42.632;23.408;2023-04-26T02:43:21;94011.50;;;9.41;81.65
19761;BME280;10039;42.632;23.408;2023-04-26T02:45:47;93989.53;;;9.00;81.58
19761;BME280;10039;42.632;23.408;2023-04-26T02:48:21;93980.63;;;9.06;81.25
19761;BME280;10039;42.632;23.408;2023-04-26T02:50:50;93978.16;;;8.99;82.10
19761;BME280;10039;42.632;23.408;2023-04-26T02:53:24;93971.47;;;9.07;81.70
19761;BME280;10039;42.632;23.408;2023-04-26T02:56:00;93969.66;;;9.17;81.99
19761;BME280;10039;42.632;23.408;2023-04-26T02:58:59;93971.78;;;9.47;81.25
19761;BME280;10039;42.632;23.408;2023-04-26T03:01:34;93958.16;;;9.32;80.77
19761;BME280;10039;42.632;23.408;2023-04-26T03:04:06;93978.25;;;9.58;80.96
19761;BME280;10039;42.632;23.408;2023-04-26T03:06:32;93948.47;;;9.38;80.55
19761;BME280;10039;42.632;23.408;2023-04-26T03:09:09;94017.13;;;9.81;80.87
19761;BME280;10039;42.632;23.408;2023-04-26T03:11:59;93971.03;;;9.46;80.63
19761;BME280;10039;42.632;23.408;2023-04-26T03:15:10;93983.72;;;9.55;80.27
19761;BME280;10039;42.632;23.408;2023-04-26T03:17:40;93963.44;;;9.57;80.30
19761;BME280;10039;42.632;23.408;2023-04-26T03:20:21;93982.28;;;9.75;80.72
19761;BME280;10039;42.632;23.408;2023-04-26T03:23:20;93954.41;;;9.42;80.71
19761;BME280;10039;42.632;23.408;2023-04-26T03:26:04;93959.66;;;9.33;81.08
19761;BME280;10039;42.632;23.408;2023-04-26T03:28:33;93991.25;;;9.56;81.24
19761;BME280;10039;42.632;23.408;2023-04-26T03:30:59;93952.91;;;9.41;81.53
19761;BME280;10039;42.632;23.408;2023-04-26T03:33:32;93985.72;;;9.63;81.32
19761;BME280;10039;42.632;23.408;2023-04-26T03:36:01;94003.50;;;9.66;80.81
19761;BME280;10039;42.632;23.408;2023-04-26T03:38:46;94005.06;;;9.76;80.34
19761;BME280;10039;42.632;23.408;2023-04-26T03:41:27;93983.88;;;9.73;80.65
19761;BME280;10039;42.632;23.408;2023-04-26T03:44:39;94032.16;;;9.87;80.93
19761;BME280;10039;42.632;23.408;2023-04-26T03:50:49;94005.53;;;9.62;81.21
19761;BME280;10039;42.632;23.408;2023-04-26T03:53:20;94027.25;;;9.61;81.49
19761;BME280;10039;42.632;23.408;2023-04-26T03:56:21;93999.13;;;9.47;81.80
19761;BME280;10039;42.632;23.408;2023-04-26T03:58:52;94028.34;;;9.63;81.60
19761;BME280;10039;42.632;23.408;2023-04-26T04:01:33;94019.56;;;9.75;81.38
19761;BME280;10039;42.632;23.408;2023-04-26T04:10:57;94037.06;;;9.76;81.74
19761;BME280;10039;42.632;23.408;2023-04-26T04:16:35;94051.97;;;9.86;81.56
19761;BME280;10039;42.632;23.408;2023-04-26T04:19:06;94018.84;;;9.62;81.30
19761;BME280;10039;42.632;23.408;2023-04-26T04:21:35;93993.91;;;9.56;80.94
19761;BME280;10039;42.632;23.408;2023-04-26T04:24:14;94027.34;;;9.82;80.70
19761;BME280;10039;42.632;23.408;2023-04-26T04:26:57;93998.81;;;9.58;81.12
19761;BME280;10039;42.632;23.408;2023-04-26T04:32:50;94028.41;;;9.97;80.29
19761;BME280;10039;42.632;23.408;2023-04-26T04:35:41;94028.50;;;10.06;80.67
19761;BME280;10039;42.632;23.408;2023-04-26T04:38:37;94017.00;;;9.84;80.61
19761;BME280;10039;42.632;23.408;2023-04-26T04:41:27;94005.72;;;9.80;80.81
19761;BME280;10039;42.632;23.408;2023-04-26T04:44:13;94059.19;;;10.23;81.11
19761;BME280;10039;42.632;23.408;2023-04-26T04:47:29;94036.63;;;10.02;80.89
19761;BME280;10039;42.632;23.408;2023-04-26T04:50:00;94067.00;;;10.17;81.14
19761;BME280;10039;42.632;23.408;2023-04-26T04:52:51;94013.81;;;9.89;81.37
19761;BME280;10039;42.632;23.408;2023-04-26T04:55:48;94055.44;;;10.33;81.12
19761;BME280;10039;42.632;23.408;2023-04-26T04:58:27;94001.53;;;10.16;80.06
19761;BME280;10039;42.632;23.408;2023-04-26T05:04:16;94072.56;;;10.57;79.60
19761;BME280;10039;42.632;23.408;2023-04-26T05:06:52;94038.06;;;10.28;79.74
19761;BME280;10039;42.632;23.408;2023-04-26T05:09:28;94035.38;;;10.28;79.63
19761;BME280;10039;42.632;23.408;2023-04-26T05:12:00;94050.56;;;10.53;79.65
19761;BME280;10039;42.632;23.408;2023-04-26T05:14:30;94014.22;;;10.46;78.68
19761;BME280;10039;42.632;23.408;2023-04-26T05:16:58;94014.28;;;10.55;78.34
19761;BME280;10039;42.632;23.408;2023-04-26T05:19:44;94063.72;;;10.81;77.82
19761;BME280;10039;42.632;23.408;2023-04-26T05:22:28;94037.81;;;10.69;78.47
19761;BME280;10039;42.632;23.408;2023-04-26T05:25:18;94013.03;;;10.69;78.08
19761;BME280;10039;42.632;23.408;2023-04-26T05:27:44;94076.94;;;11.06;78.65
19761;BME280;10039;42.632;23.408;2023-04-26T05:30:10;94021.50;;;10.89;78.15
19761;BME280;10039;42.632;23.408;2023-04-26T05:32:37;94053.25;;;11.17;77.50
19761;BME280;10039;42.632;23.408;2023-04-26T05:35:09;94019.94;;;11.00;75.79
19761;BME280;10039;42.632;23.408;2023-04-26T05:37:38;94032.84;;;11.02;76.18
19761;BME280;10039;42.632;23.408;2023-04-26T05:40:25;94038.41;;;11.16;76.06
19761;BME280;10039;42.632;23.408;2023-04-26T05:42:51;94054.88;;;11.36;75.57
19761;BME280;10039;42.632;23.408;2023-04-26T05:45:17;94031.56;;;11.36;75.41
19761;BME280;10039;42.632;23.408;2023-04-26T05:47:43;94041.59;;;11.54;75.55
19761;BME280;10039;42.632;23.408;2023-04-26T05:50:18;94081.34;;;11.73;75.50
19761;BME280;10039;42.632;23.408;2023-04-26T05:52:58;94059.97;;;11.73;75.68
19761;BME280;10039;42.632;23.408;2023-04-26T05:55:33;94074.09;;;11.83;74.74
19761;BME280;10039;42.632;23.408;2023-04-26T05:58:06;94082.06;;;12.04;75.42
19761;BME280;10039;42.632;23.408;2023-04-26T06:00:42;94057.97;;;12.04;74.14
19761;BME280;10039;42.632;23.408;2023-04-26T06:03:14;94032.13;;;12.01;74.14
19761;BME280;10039;42.632;23.408;2023-04-26T06:05:42;94068.03;;;12.39;73.08
19761;BME280;10039;42.632;23.408;2023-04-26T06:08:09;94028.75;;;12.19;72.72
19761;BME280;10039;42.632;23.408;2023-04-26T06:10:35;94043.78;;;12.34;72.61
19761;BME280;10039;42.632;23.408;2023-04-26T06:13:09;94019.84;;;12.30;73.02
19761;BME280;10039;42.632;23.408;2023-04-26T06:15:45;94057.78;;;12.65;73.29
19761;BME280;10039;42.632;23.408;2023-04-26T06:18:10;94050.53;;;12.74;73.05
19761;BME280;10039;42.632;23.408;2023-04-26T06:20:36;94008.44;;;12.57;71.81
19761;BME280;10039;42.632;23.408;2023-04-26T06:23:05;94048.88;;;12.95;71.89
19761;BME280;10039;42.632;23.408;2023-04-26T06:25:35;94068.38;;;13.13;71.26
19761;BME280;10039;42.632;23.408;2023-04-26T06:28:15;94073.88;;;13.19;70.58
19761;BME280;10039;42.632;23.408;2023-04-26T06:30:55;94025.97;;;12.94;70.42
19761;BME280;10039;42.632;23.408;2023-04-26T06:36:20;94043.19;;;13.38;70.45
19761;BME280;10039;42.632;23.408;2023-04-26T06:38:54;94035.44;;;13.40;69.23
19761;BME280;10039;42.632;23.408;2023-04-26T06:41:20;94042.09;;;13.44;69.84
19761;BME280;10039;42.632;23.408;2023-04-26T06:43:50;94026.81;;;13.27;68.93
19761;BME280;10039;42.632;23.408;2023-04-26T06:46:29;94023.25;;;13.30;69.01
19761;BME280;10039;42.632;23.408;2023-04-26T06:49:03;94017.13;;;13.38;70.17
19761;BME280;10039;42.632;23.408;2023-04-26T06:51:29;94023.69;;;13.37;67.52
19761;BME280;10039;42.632;23.408;2023-04-26T06:53:57;94036.81;;;13.26;68.26
19761;BME280;10039;42.632;23.408;2023-04-26T06:56:25;94023.28;;;13.21;67.93
19761;BME280;10039;42.632;23.408;2023-04-26T06:59:02;94047.41;;;13.12;65.24
19761;BME280;10039;42.632;23.408;2023-04-26T07:01:38;94079.84;;;13.05;63.88
19761;BME280;10039;42.632;23.408;2023-04-26T07:04:09;94016.25;;;12.16;64.18
19761;BME280;10039;42.632;23.408;2023-04-26T07:06:37;94028.53;;;11.95;63.90
19761;BME280;10039;42.632;23.408;2023-04-26T07:09:03;94037.47;;;12.01;65.14
19761;BME280;10039;42.632;23.408;2023-04-26T07:11:31;94040.75;;;12.05;65.15
19761;BME280;10039;42.632;23.408;2023-04-26T07:17:30;94059.72;;;12.55;63.28
19761;BME280;10039;42.632;23.408;2023-04-26T07:20:01;94071.63;;;12.63;62.82
19761;BME280;10039;42.632;23.408;2023-04-26T07:22:53;94081.31;;;12.88;63.65
19761;BME280;10039;42.632;23.408;2023-04-26T07:25:19;94063.63;;;12.90;63.53
19761;BME280;10039;42.632;23.408;2023-04-26T07:28:08;94063.16;;;12.92;63.55
19761;BME280;10039;42.632;23.408;2023-04-26T07:30:34;94038.78;;;12.90;61.18
19761;BME280;10039;42.632;23.408;2023-04-26T07:33:00;94054.84;;;13.17;62.73
19761;BME280;10039;42.632;23.408;2023-04-26T07:35:27;94074.09;;;13.56;61.47
19761;BME280;10039;42.632;23.408;2023-04-26T07:38:06;94099.41;;;13.64;61.12
19761;BME280;10039;42.632;23.408;2023-04-26T07:41:41;94060.03;;;13.11;58.71
19761;BME280;10039;42.632;23.408;2023-04-26T07:44:01;94084.59;;;13.19;59.47
19761;BME280;10039;42.632;23.408;2023-04-26T07:46:28;94055.44;;;13.21;60.59
19761;BME280;10039;42.632;23.408;2023-04-26T07:48:55;94101.53;;;13.51;62.18
19761;BME280;10039;42.632;23.408;2023-04-26T07:51:22;94063.25;;;13.42;59.90
19761;BME280;10039;42.632;23.408;2023-04-26T07:54:16;94054.66;;;13.29;59.15
19761;BME280;10039;42.632;23.408;2023-04-26T07:57:13;94068.91;;;13.44;58.54
19761;BME280;10039;42.632;23.408;2023-04-26T07:59:53;94074.56;;;13.55;56.87
19761;BME280;10039;42.632;23.408;2023-04-26T08:02:50;94075.41;;;13.70;57.14
19761;BME280;10039;42.632;23.408;2023-04-26T08:05:17;94056.97;;;13.54;58.56
19761;BME280;10039;42.632;23.408;2023-04-26T08:07:48;94076.72;;;13.74;58.27
19761;BME280;10039;42.632;23.408;2023-04-26T08:10:20;94091.59;;;13.84;56.56
19761;BME280;10039;42.632;23.408;2023-04-26T08:12:45;94099.91;;;13.86;56.06
19761;BME280;10039;42.632;23.408;2023-04-26T08:15:12;94113.78;;;13.85;55.49
19761;BME280;10039;42.632;23.408;2023-04-26T08:17:54;94092.81;;;13.74;56.15
19761;BME280;10039;42.632;23.408;2023-04-26T08:20:26;94061.53;;;13.71;58.19
19761;BME280;10039;42.632;23.408;2023-04-26T08:22:58;94048.41;;;13.82;57.71
19761;BME280;10039;42.632;23.408;2023-04-26T08:25:34;94079.56;;;14.12;57.48
19761;BME280;10039;42.632;23.408;2023-04-26T08:28:12;94087.94;;;14.14;56.88
19761;BME280;10039;42.632;23.408;2023-04-26T08:30:52;94074.19;;;14.12;57.70
19761;BME280;10039;42.632;23.408;2023-04-26T08:36:22;94060.91;;;13.85;56.50
19761;BME280;10039;42.632;23.408;2023-04-26T08:47:57;94094.91;;;13.70;57.25
19761;BME280;10039;42.632;23.408;2023-04-26T08:50:30;94118.75;;;13.77;57.36
19761;BME280;10039;42.632;23.408;2023-04-26T08:53:04;94075.72;;;13.63;56.16
19761;BME280;10039;42.632;23.408;2023-04-26T08:55:41;94061.88;;;13.55;55.84
19761;BME280;10039;42.632;23.408;2023-04-26T08:58:07;94048.16;;;13.62;57.77
19761;BME280;10039;42.632;23.408;2023-04-26T09:03:15;94066.69;;;13.51;56.98
19761;BME280;10039;42.632;23.408;2023-04-26T09:05:44;94083.56;;;13.84;57.53
19761;BME280;10039;42.632;23.408;2023-04-26T09:08:15;94087.97;;;13.96;57.01
19761;BME280;10039;42.632;23.408;2023-04-26T09:10:44;94070.38;;;13.95;57.16
19761;BME280;10039;42.632;23.408;2023-04-26T09:13:17;94115.50;;;14.47;56.38
19761;BME280;10039;42.632;23.408;2023-04-26T09:18:58;94110.34;;;14.58;54.55
19761;BME280;10039;42.632;23.408;2023-04-26T09:21:32;94112.69;;;14.42;55.05
19761;BME280;10039;42.632;23.408;2023-04-26T09:24:08;94077.81;;;14.00;54.99
19761;BME280;10039;42.632;23.408;2023-04-26T09:26:34;94082.50;;;14.23;55.64
19761;BME280;10039;42.632;23.408;2023-04-26T09:29:17;94078.03;;;14.20;54.20
19761;BME280;10039;42.632;23.408;2023-04-26T09:31:47;94069.72;;;14.18;53.72
19761;BME280;10039;42.632;23.408;2023-04-26T09:34:14;94089.00;;;14.40;55.28
19761;BME280;10039;42.632;23.408;2023-04-26T09:36:53;94119.09;;;14.67;54.89
19761;BME280;10039;42.632;23.408;2023-04-26T09:39:35;94073.56;;;14.26;53.60
19761;BME280;10039;42.632;23.408;2023-04-26T09:42:10;94077.22;;;14.38;53.89
19761;BME280;10039;42.632;23.408;2023-04-26T09:44:36;94114.78;;;14.70;54.67
19761;BME280;10039;42.632;23.408;2023-04-26T09:47:04;94092.53;;;14.46;53.99
19761;BME280;10039;42.632;23.408;2023-04-26T09:49:41;94062.88;;;14.41;54.42
19761;BME280;10039;42.632;23.408;2023-04-26T09:52:07;94123.47;;;14.88;54.02
19761;BME280;10039;42.632;23.408;2023-04-26T09:54:48;94117.84;;;15.01;53.54
19761;BME280;10039;42.632;23.408;2023-04-26T09:57:15;94125.66;;;15.13;53.18
19761;BME280;10039;42.632;23.408;2023-04-26T09:59:46;94056.88;;;14.69;52.96
19761;BME280;10039;42.632;23.408;2023-04-26T10:02:23;94077.31;;;14.90;53.03
19761;BME280;10039;42.632;23.408;2023-04-26T10:04:53;94108.66;;;15.31;53.80
19761;BME280;10039;42.632;23.408;2023-04-26T10:10:12;94069.28;;;15.42;53.40
19761;BME280;10039;42.632;23.408;2023-04-26T10:12:40;94086.72;;;15.61;51.77
19761;BME280;10039;42.632;23.408;2023-04-26T10:15:09;94084.69;;;15.71;52.93
19761;BME280;10039;42.632;23.408;2023-04-26T10:17:38;94064.72;;;15.34;49.96
19761;BME280;10039;42.632;23.408;2023-04-26T10:20:09;94076.34;;;15.40;51.85
19761;BME280;10039;42.632;23.408;2023-04-26T10:22:49;94060.84;;;15.49;51.08
19761;BME280;10039;42.632;23.408;2023-04-26T10:25:17;94047.19;;;15.38;51.20
19761;BME280;10039;42.632;23.408;2023-04-26T10:27:51;94046.44;;;15.23;49.64
19761;BME280;10039;42.632;23.408;2023-04-26T10:30:24;94068.91;;;15.35;49.49
19761;BME280;10039;42.632;23.408;2023-04-26T10:35:26;94080.03;;;15.71;50.95
19761;BME280;10039;42.632;23.408;2023-04-26T10:38:12;94061.13;;;15.37;50.04
19761;BME280;10039;42.632;23.408;2023-04-26T10:40:39;94095.44;;;15.42;50.02
19761;BME280;10039;42.632;23.408;2023-04-26T10:45:42;94082.19;;;15.15;50.04
19761;BME280;10039;42.632;23.408;2023-04-26T10:48:20;94091.38;;;14.85;48.89
19761;BME280;10039;42.632;23.408;2023-04-26T10:51:10;94089.41;;;14.71;49.24
19761;BME280;10039;42.632;23.408;2023-04-26T10:53:59;94069.28;;;14.66;49.18
19761;BME280;10039;42.632;23.408;2023-04-26T11:02:48;94048.16;;;14.36;50.65
19761;BME280;10039;42.632;23.408;2023-04-26T11:08:23;94056.03;;;14.16;48.52
19761;BME280;10039;42.632;23.408;2023-04-26T11:11:21;94086.53;;;14.51;49.07
19761;BME280;10039;42.632;23.408;2023-04-26T11:14:23;94054.25;;;14.13;49.91
19761;BME280;10039;42.632;23.408;2023-04-26T11:17:02;94046.50;;;14.15;48.71
19761;BME280;10039;42.632;23.408;2023-04-26T11:20:03;94085.00;;;14.59;49.34
19761;BME280;10039;42.632;23.408;2023-04-26T11:22:42;94053.81;;;14.38;49.73
19761;BME280;10039;42.632;23.408;2023-04-26T11:25:11;94093.84;;;14.51;50.40
19761;BME280;10039;42.632;23.408;2023-04-26T11:27:38;94083.41;;;14.53;50.55
19761;BME280;10039;42.632;23.408;2023-04-26T11:30:22;94057.13;;;14.33;48.31
19761;BME280;10039;42.632;23.408;2023-04-26T11:32:57;94069.53;;;14.31;47.68
19761;BME280;10039;42.632;23.408;2023-04-26T11:35:54;94090.50;;;14.64;48.31
19761;BME280;10039;42.632;23.408;2023-04-26T11:38:51;94032.50;;;14.35;47.22
19761;BME280;10039;42.632;23.408;2023-04-26T11:48:17;94034.38;;;14.43;48.59
19761;BME280;10039;42.632;23.408;2023-04-26T11:51:28;94067.97;;;14.62;46.98
19761;BME280;10039;42.632;23.408;2023-04-26T11:53:59;94039.22;;;14.30;46.98
19761;BME280;10039;42.632;23.408;2023-04-26T11:56:26;94054.59;;;14.53;48.18
19761;BME280;10039;42.632;23.408;2023-04-26T12:05:56;94042.34;;;15.13;46.53
19761;BME280;10039;42.632;23.408;2023-04-26T12:09:33;94028.69;;;15.17;46.42
19761;BME280;10039;42.632;23.408;2023-04-26T12:12:00;94054.34;;;15.41;45.68
19761;BME280;10039;42.632;23.408;2023-04-26T12:21:19;94044.91;;;15.60;46.99
19761;BME280;10039;42.632;23.408;2023-04-26T12:27:03;94046.75;;;15.40;46.43
19761;BME280;10039;42.632;23.408;2023-04-26T12:29:52;94062.41;;;15.56;45.09
19761;BME280;10039;42.632;23.408;2023-04-26T12:32:26;94004.16;;;15.09;44.96
19761;BME280;10039;42.632;23.408;2023-04-26T12:34:55;94019.72;;;15.05;45.35
19761;BME280;10039;42.632;23.408;2023-04-26T12:37:40;94043.06;;;15.14;45.63
19761;BME280;10039;42.632;23.408;2023-04-26T12:40:23;94032.78;;;14.98;45.05
19761;BME280;10039;42.632;23.408;2023-04-26T12:46:54;94016.25;;;14.76;45.87
19761;BME280;10039;42.632;23.408;2023-04-26T12:49:24;94027.31;;;14.92;46.33
19761;BME280;10039;42.632;23.408;2023-04-26T12:57:33;94001.88;;;14.64;46.18
19761;BME280;10039;42.632;23.408;2023-04-26T13:00:12;94021.34;;;14.74;46.00
19761;BME280;10039;42.632;23.408;2023-04-26T13:02:50;94012.72;;;14.70;46.39
19761;BME280;10039;42.632;23.408;2023-04-26T13:05:22;94011.09;;;14.49;46.24
19761;BME280;10039;42.632;23.408;2023-04-26T13:07:53;94025.28;;;14.64;47.29
19761;BME280;10039;42.632;23.408;2023-04-26T13:10:21;94077.44;;;14.95;48.17
19761;BME280;10039;42.632;23.408;2023-04-26T13:12:47;94039.28;;;14.68;47.32
19761;BME280;10039;42.632;23.408;2023-04-26T13:15:29;94062.66;;;14.53;46.12
19761;BME280;10039;42.632;23.408;2023-04-26T13:18:35;94075.63;;;14.55;46.86
19761;BME280;10039;42.632;23.408;2023-04-26T13:21:09;94048.19;;;14.27;47.51
19761;BME280;10039;42.632;23.408;2023-04-26T13:24:09;94087.16;;;14.23;49.41
19761;BME280;10039;42.632;23.408;2023-04-26T13:26:46;94080.00;;;14.20;49.61
19761;BME280;10039;42.632;23.408;2023-04-26T13:29:21;94043.34;;;13.75;49.07
19761;BME280;10039;42.632;23.408;2023-04-26T13:32:08;94041.75;;;13.69;48.90
19761;BME280;10039;42.632;23.408;2023-04-26T13:34:42;94077.81;;;14.00;49.31
19761;BME280;10039;42.632;23.408;2023-04-26T13:37:33;94093.31;;;14.05;49.23
19761;BME280;10039;42.632;23.408;2023-04-26T13:40:02;94046.41;;;13.92;49.53
19761;BME280;10039;42.632;23.408;2023-04-26T13:42:36;94117.66;;;14.34;48.71
19761;BME280;10039;42.632;23.408;2023-04-26T13:45:21;94115.75;;;14.26;47.45
19761;BME280;10039;42.632;23.408;2023-04-26T13:47:46;94104.03;;;14.05;46.90
19761;BME280;10039;42.632;23.408;2023-04-26T13:50:12;94118.66;;;14.13;46.61
19761;BME280;10039;42.632;23.408;2023-04-26T13:52:37;94117.00;;;14.16;46.57
19761;BME280;10039;42.632;23.408;2023-04-26T13:55:03;94093.50;;;13.93;47.78
19761;BME280;10039;42.632;23.408;2023-04-26T13:57:29;94092.72;;;14.01;48.16
19761;BME280;10039;42.632;23.408;2023-04-26T13:59:54;94138.25;;;14.28;47.53
19761;BME280;10039;42.632;23.408;2023-04-26T14:02:20;94100.81;;;13.92;48.22
19761;BME280;10039;42.632;23.408;2023-04-26T14:04:46;94124.59;;;14.08;48.38
19761;BME280;10039;42.632;23.408;2023-04-26T14:07:11;94133.25;;;14.12;48.61
19761;BME280;10039;42.632;23.408;2023-04-26T14:09:37;94114.56;;;13.85;48.20
19761;BME280;10039;42.632;23.408;2023-04-26T14:12:03;94102.53;;;13.63;48.14
19761;BME280;10039;42.632;23.408;2023-04-26T14:14:28;94085.97;;;13.73;49.80
19761;BME280;10039;42.632;23.408;2023-04-26T14:16:57;94111.56;;;13.83;49.91
19761;BME280;10039;42.632;23.408;2023-04-26T14:19:22;94106.53;;;13.76;49.42
19761;BME280;10039;42.632;23.408;2023-04-26T14:21:50;94123.75;;;13.93;49.39
19761;BME280;10039;42.632;23.408;2023-04-26T14:24:16;94143.53;;;14.05;49.17
19761;BME280;10039;42.632;23.408;2023-04-26T14:26:42;94120.22;;;13.78;50.03
19761;BME280;10039;42.632;23.408;2023-04-26T14:29:07;94147.34;;;13.80;49.32
19761;BME280;10039;42.632;23.408;2023-04-26T14:31:33;94147.47;;;13.77;49.79
19761;BME280;10039;42.632;23.408;2023-04-26T14:33:59;94135.75;;;13.56;50.21
19761;BME280;10039;42.632;23.408;2023-04-26T14:36:25;94167.19;;;13.56;50.16
19761;BME280;10039;42.632;23.408;2023-04-26T14:38:50;94164.81;;;13.49;50.26
19761;BME280;10039;42.632;23.408;2023-04-26T14:41:19;94167.66;;;13.45;51.33
19761;BME280;10039;42.632;23.408;2023-04-26T14:43:46;94159.91;;;13.12;51.91
19761;BME280;10039;42.632;23.408;2023-04-26T14:46:12;94159.16;;;12.93;51.24
19761;BME280;10039;42.632;23.408;2023-04-26T14:48:38;94156.03;;;12.95;52.51
19761;BME280;10039;42.632;23.408;2023-04-26T14:51:03;94160.81;;;13.09;52.25
19761;BME280;10039;42.632;23.408;2023-04-26T14:53:29;94200.69;;;13.25;52.44
19761;BME280;10039;42.632;23.408;2023-04-26T14:55:56;94167.06;;;13.15;52.37
19761;BME280;10039;42.632;23.408;2023-04-26T14:58:22;94177.50;;;13.22;51.70
19761;BME280;10039;42.632;23.408;2023-04-26T15:00:47;94181.91;;;12.98;51.84
19761;BME280;10039;42.632;23.408;2023-04-26T15:03:13;94176.84;;;13.00;51.62
19761;BME280;10039;42.632;23.408;2023-04-26T15:05:39;94196.50;;;12.97;53.23
19761;BME280;10039;42.632;23.408;2023-04-26T15:08:05;94212.09;;;12.89;54.11
19761;BME280;10039;42.632;23.408;2023-04-26T15:10:30;94204.50;;;12.88;52.75
19761;BME280;10039;42.632;23.408;2023-04-26T15:12:56;94219.66;;;12.82;53.82
19761;BME280;10039;42.632;23.408;2023-04-26T15:15:22;94205.38;;;12.85;53.58
19761;BME280;10039;42.632;23.408;2023-04-26T15:17:48;94240.00;;;13.19;54.11
19761;BME280;10039;42.632;23.408;2023-04-26T15:20:14;94246.25;;;12.76;53.85
19761;BME280;10039;42.632;23.408;2023-04-26T15:22:40;94221.97;;;12.62;54.61
19761;BME280;10039;42.632;23.408;2023-04-26T15:25:06;94238.22;;;12.67;55.29
19761;BME280;10039;42.632;23.408;2023-04-26T15:27:36;94236.84;;;12.63;55.06
19761;BME280;10039;42.632;23.408;2023-04-26T15:30:03;94250.72;;;12.79;55.70
19761;BME280;10039;42.632;23.408;2023-04-26T15:32:29;94245.63;;;12.63;55.57
19761;BME280;10039;42.632;23.408;2023-04-26T15:34:55;94232.88;;;12.37;55.09
19761;BME280;10039;42.632;23.408;2023-04-26T15:37:20;94245.22;;;12.43;55.51
19761;BME280;10039;42.632;23.408;2023-04-26T15:39:46;94257.25;;;12.39;55.75
19761;BME280;10039;42.632;23.408;2023-04-26T15:42:12;94262.41;;;12.64;55.93